Time;durP1;ratioP1;P1;durP2;ratioP2;P2;SDS_P1;SDS_P2;PMS_P1;PMS_P2;Temp;Humidity;BMP_temperature;BMP_pressure;BME280_temperature;BME280_humidity;BME280_pressure;Samples;Min_cycle;Max_cycle;Signal;HPM_P1;HPM_P2
2022/04/26 03:36:38;;;;;;;1.40;1.00;;;5.10;99.90;;;;;;21185963;28;20099;-55
2022/04/26 03:46:41;;;;;;;2.67;1.35;;;5.00;99.90;;;;;;21165334;28;20044;-55
2022/04/26 03:56:43;;;;;;;1.55;1.05;;;5.00;99.90;;;;;;21213220;27;20039;-49
2022/04/26 04:06:48;;;;;;;1.67;0.90;;;5.00;99.90;;;;;;21177345;27;20065;-48
2022/04/26 04:16:51;;;;;;;1.48;0.75;;;5.00;99.90;;;;;;21216219;27;20039;-46
2022/04/26 04:26:53;;;;;;;1.20;0.80;;;5.00;99.90;;;;;;21224487;27;20039;-46
2022/04/26 04:36:57;;;;;;;0.93;0.50;;;5.10;99.90;;;;;;21169316;27;20488;-46
2022/04/26 04:47:00;;;;;;;0.60;0.45;;;5.10;99.90;;;;;;21181957;27;20077;-50
2022/04/26 04:57:06;;;;;;;0.88;0.50;;;5.20;99.90;;;;;;21190956;27;20043;-53
2022/04/26 05:07:09;;;;;;;0.60;0.25;;;5.20;99.90;;;;;;21210306;27;20035;-46
2022/04/26 05:17:12;;;;;;;1.65;0.30;;;5.20;99.90;;;;;;21143834;27;20088;-55
2022/04/26 05:27:14;;;;;;;0.40;0.38;;;5.30;99.90;;;;;;21212034;27;20072;-46
2022/04/26 05:37:17;;;;;;;22.55;1.23;;;5.50;99.90;;;;;;21218640;27;20092;-50
2022/04/26 05:47:20;;;;;;;0.57;0.20;;;5.60;99.90;;;;;;21217395;27;20051;-47
2022/04/26 05:57:22;;;;;;;0.20;0.10;;;5.60;99.90;;;;;;21165594;27;20116;-46
2022/04/26 06:07:27;;;;;;;0.30;0.10;;;5.70;99.90;;;;;;21155987;27;20027;-50
2022/04/26 06:17:32;;;;;;;0.30;0.20;;;5.80;99.90;;;;;;21156546;27;20039;-54
2022/04/26 06:27:35;;;;;;;0.85;0.20;;;6.00;99.90;;;;;;21178842;27;20119;-47
2022/04/26 06:37:37;;;;;;;3.67;0.55;;;6.40;99.90;;;;;;21174792;27;20056;-47
2022/04/26 06:47:40;;;;;;;0.32;0.30;;;6.40;99.90;;;;;;21107461;28;20496;-46
2022/04/26 06:57:42;;;;;;;0.30;0.20;;;6.60;99.90;;;;;;21048690;28;20550;-47
2022/04/26 07:07:48;;;;;;;0.25;0.20;;;6.80;99.90;;;;;;21057486;28;20044;-55
2022/04/26 07:17:51;;;;;;;0.30;0.30;;;7.10;99.90;;;;;;21120318;28;20035;-47
2022/04/26 07:27:54;;;;;;;0.63;0.30;;;7.20;99.90;;;;;;21103252;28;20023;-47
2022/04/26 07:38:07;;;;;;;0.73;0.57;;;7.40;99.90;;;;;;21087284;28;20069;-45
2022/04/26 07:48:10;;;;;;;0.60;0.40;;;7.50;99.90;;;;;;21161707;27;20039;-46
2022/04/26 07:58:12;;;;;;;0.80;0.52;;;7.60;99.90;;;;;;21172938;27;20035;-46
2022/04/26 08:08:15;;;;;;;1.25;0.70;;;8.40;99.90;;;;;;21190723;27;20039;-46
2022/04/26 08:18:18;;;;;;;0.70;0.50;;;8.90;99.90;;;;;;21226180;27;20471;-50
2022/04/26 08:28:21;;;;;;;0.80;0.60;;;9.40;99.90;;;;;;21215109;27;20036;-47
2022/04/26 08:38:23;;;;;;;134.43;5.90;;;9.20;99.90;;;;;;21205281;27;20039;-48
2022/04/26 08:58:48;;;;;;;158.93;7.72;;;8.20;99.90;;;;;;21137754;28;20069;-57
2022/04/26 09:09:04;;;;;;;93.07;5.03;;;8.40;99.90;;;;;;21166351;27;20031;-49
2022/04/26 09:19:08;;;;;;;248.77;10.50;;;9.30;99.90;;;;;;21150201;27;20461;-50
2022/04/26 09:29:19;;;;;;;280.63;14.32;;;9.40;99.90;;;;;;21200227;27;20039;-48
2022/04/26 09:39:23;;;;;;;576.78;28.98;;;8.50;99.90;;;;;;21142313;27;20465;-57
2022/04/26 09:49:34;;;;;;;748.15;32.40;;;7.90;99.90;;;;;;21217980;27;20091;-49
2022/04/26 09:59:41;;;;;;;;;;;7.70;99.90;;;;;;21146421;28;20290;-47
2022/04/26 10:09:46;;;;;;;643.42;28.05;;;7.60;99.90;;;;;;21186536;27;19933;-50
2022/04/26 10:19:50;;;;;;;723.28;32.30;;;7.50;99.90;;;;;;21194199;27;20054;-48
2022/04/26 10:29:53;;;;;;;627.72;29.33;;;7.40;99.90;;;;;;21214332;27;20035;-47
2022/04/26 10:40:02;;;;;;;637.42;26.15;;;7.30;99.90;;;;;;21209455;27;20039;-49
2022/04/26 10:50:06;;;;;;;996.45;45.55;;;7.30;99.90;;;;;;21022375;28;20036;-46
2022/04/26 11:00:09;;;;;;;269.63;12.13;;;7.20;99.90;;;;;;20989258;28;20107;-49
2022/04/26 11:10:16;;;;;;;399.08;18.25;;;7.20;99.90;;;;;;20976793;28;20044;-49
2022/04/26 11:20:22;;;;;;;350.48;15.82;;;7.30;99.90;;;;;;21051461;28;20613;-47
2022/04/26 11:30:35;;;;;;;466.05;20.85;;;7.30;99.90;;;;;;21083831;27;20047;-48
2022/04/26 11:40:41;;;;;;;1424.53;77.55;;;7.40;99.90;;;;;;21146295;27;20051;-47
2022/04/26 11:50:47;;;;;;;1455.85;75.75;;;7.30;99.90;;;;;;21211928;27;20108;-50
2022/04/26 12:01:12;;;;;;;1106.95;53.47;;;7.20;99.90;;;;;;21201918;27;20039;-47
2022/04/26 12:11:18;;;;;;;908.22;42.13;;;7.20;99.90;;;;;;21149508;27;20503;-49
2022/04/26 12:21:22;;;;;;;1023.20;52.22;;;7.50;99.90;;;;;;21224021;27;20039;-46
2022/04/26 12:31:29;;;;;;;738.13;39.88;;;7.60;99.90;;;;;;21185367;27;20047;-49
2022/04/26 12:41:50;;;;;;;893.58;51.28;;;7.70;99.90;;;;;;21182533;27;20039;-48
2022/04/26 12:51:54;;;;;;;16.50;8.05;;;8.00;99.90;;;;;;21185457;27;20064;-47
2022/04/26 13:01:56;;;;;;;621.53;39.58;;;8.50;99.90;;;;;;21178634;27;20385;-46
2022/04/26 13:11:59;;;;;;;2.90;1.58;;;8.10;99.90;;;;;;21172658;27;20092;-47
2022/04/26 13:22:02;;;;;;;0.10;0.00;;;8.20;99.90;;;;;;21211430;27;20028;-46
2022/04/26 13:32:05;;;;;;;2.08;1.23;;;7.70;99.90;;;;;;21218437;27;20475;-47
2022/04/26 13:42:10;;;;;;;3.58;2.35;;;7.30;99.90;;;;;;21154371;27;20473;-46
2022/04/26 13:52:15;;;;;;;4.07;2.33;;;7.80;99.90;;;;;;21182750;27;20094;-48
2022/04/26 14:02:19;;;;;;;2.15;1.40;;;9.10;99.90;;;;;;21194938;27;20092;-56
2022/04/26 14:12:21;;;;;;;2.88;2.13;;;9.60;99.90;;;;;;21153618;27;20039;-58
2022/04/26 14:22:30;;;;;;;1.92;1.25;;;9.80;99.90;;;;;;21178133;27;20024;-57
2022/04/26 14:32:34;;;;;;;3.60;1.93;;;10.10;99.90;;;;;;21184098;27;20036;-56
2022/04/26 14:42:38;;;;;;;2.63;1.55;;;10.40;99.90;;;;;;21177860;27;20097;-57
2022/04/26 14:52:40;;;;;;;2.70;1.67;;;10.10;99.90;;;;;;21171011;27;20088;-52
2022/04/26 15:02:43;;;;;;;3.90;1.95;;;9.60;99.90;;;;;;21133520;28;20061;-53
2022/04/26 15:23:07;;;;;;;3.00;1.90;;;9.40;99.90;;;;;;21169136;28;20497;-52
2022/04/26 15:33:13;;;;;;;3.00;2.13;;;9.30;99.90;;;;;;21111456;28;20552;-48
2022/04/26 15:43:15;;;;;;;3.80;2.20;;;8.80;99.90;;;;;;21126810;28;20496;-56
2022/04/26 15:53:19;;;;;;;5.43;2.70;;;8.00;99.90;;;;;;21141135;27;20545;-57
2022/04/26 16:03:22;;;;;;;3.60;2.40;;;8.00;99.90;;;;;;21226923;27;20031;-51
2022/04/26 16:23:46;;;;;;;4.50;2.97;;;7.80;99.90;;;;;;21225233;27;20087;-58
2022/04/26 16:33:49;;;;;;;7.18;4.20;;;7.80;99.90;;;;;;21223562;27;20056;-58
2022/04/26 16:43:52;;;;;;;6.95;3.22;;;7.90;99.90;;;;;;21201636;27;20108;-58
2022/04/26 16:53:55;;;;;;;6.47;4.15;;;7.90;99.90;;;;;;21141572;27;20110;-50
2022/04/26 17:03:58;;;;;;;9.05;5.72;;;8.00;99.90;;;;;;21221386;27;20039;-52
2022/04/26 17:14:01;;;;;;;8.88;5.75;;;8.00;99.90;;;;;;21221271;27;20080;-49
2022/04/26 17:24:04;;;;;;;9.50;5.82;;;7.90;99.90;;;;;;21217273;27;20043;-49
2022/04/26 17:34:08;;;;;;;5.40;3.92;;;7.80;99.90;;;;;;21218961;27;20039;-49
2022/04/26 17:44:11;;;;;;;7.00;4.97;;;7.80;99.90;;;;;;21169552;27;20056;-50
2022/04/26 18:04:35;;;;;;;13.20;6.38;;;7.20;99.90;;;;;;21214882;27;20043;-48
2022/04/26 18:14:38;;;;;;;11.10;6.28;;;6.90;99.90;;;;;;21130558;28;20044;-49
2022/04/26 18:24:41;;;;;;;10.63;6.43;;;6.80;99.90;;;;;;21214350;27;20084;-57
2022/04/26 18:34:44;;;;;;;8.73;5.65;;;6.60;99.90;;;;;;21138192;28;20538;-52
2022/04/26 18:44:49;;;;;;;11.65;7.30;;;6.50;99.90;;;;;;20914404;28;20106;-50
2022/04/26 18:54:52;;;;;;;11.75;7.50;;;6.20;99.90;;;;;;20950606;28;20045;-52
2022/04/26 19:04:54;;;;;;;16.42;9.30;;;6.10;99.90;;;;;;20899505;28;20048;-51
2022/04/26 19:14:58;;;;;;;13.50;7.53;;;6.10;99.90;;;;;;20951696;28;20068;-58
2022/04/26 19:25:02;;;;;;;15.57;8.95;;;6.50;99.90;;;;;;20785052;28;20042;-49
2022/04/26 19:35:07;;;;;;;13.35;7.68;;;6.60;99.90;;;;;;20575091;28;20145;-52
2022/04/26 19:45:10;;;;;;;11.98;7.82;;;6.70;99.90;;;;;;20696919;28;20463;-53
2022/04/26 19:55:13;;;;;;;10.80;7.07;;;6.90;99.90;;;;;;20810935;28;20076;-50
2022/04/26 20:05:16;;;;;;;14.05;7.95;;;7.00;99.90;;;;;;20881887;28;20081;-52
2022/04/26 20:15:21;;;;;;;10.95;7.28;;;7.00;99.90;;;;;;20966894;28;20040;-52
2022/04/26 20:25:24;;;;;;;14.35;9.23;;;7.00;99.90;;;;;;21055691;28;20697;-51
2022/04/26 20:35:29;;;;;;;11.70;7.75;;;6.80;99.90;;;;;;21071422;28;20035;-52
2022/04/26 20:45:32;;;;;;;12.10;8.50;;;6.80;99.90;;;;;;21184588;27;20103;-51
2022/04/26 20:55:34;;;;;;;10.95;6.15;;;6.60;99.90;;;;;;21222720;27;20104;-53
2022/04/26 21:05:38;;;;;;;4.72;2.80;;;6.40;99.90;;;;;;21221947;27;20039;-52
2022/04/26 21:15:41;;;;;;;3.40;2.40;;;6.30;99.90;;;;;;21220891;27;20107;-52
2022/04/26 21:25:43;;;;;;;2.22;1.10;;;6.40;99.90;;;;;;21220187;27;20031;-50
2022/04/26 21:35:47;;;;;;;4.63;1.30;;;6.40;99.90;;;;;;21219256;27;20107;-51
2022/04/26 21:45:50;;;;;;;2.15;1.27;;;6.40;99.90;;;;;;21056823;28;20055;-53
2022/04/26 21:55:53;;;;;;;1.63;1.08;;;6.30;99.90;;;;;;21038727;28;20378;-52
2022/04/26 22:05:56;;;;;;;1.63;0.80;;;6.10;99.90;;;;;;21039594;28;20581;-54
2022/04/26 22:16:00;;;;;;;0.90;0.50;;;6.00;99.90;;;;;;21061973;27;20098;-53
2022/04/26 22:26:03;;;;;;;0.63;0.43;;;5.70;99.90;;;;;;21215423;27;20035;-59
2022/04/26 22:36:06;;;;;;;0.70;0.30;;;5.50;99.90;;;;;;21214719;27;20031;-52
2022/04/26 22:46:08;;;;;;;0.32;0.20;;;5.40;99.90;;;;;;21197583;27;20059;-52
2022/04/26 22:56:11;;;;;;;0.40;0.20;;;5.30;99.90;;;;;;21052423;28;20064;-52
2022/04/26 23:06:15;;;;;;;1.48;0.20;;;5.00;99.90;;;;;;21034974;28;20043;-59
2022/04/26 23:16:17;;;;;;;0.22;0.10;;;4.60;99.90;;;;;;21034788;28;20101;-58
2022/04/26 23:26:20;;;;;;;2.28;0.30;;;4.50;99.90;;;;;;21034920;28;20052;-53
2022/04/26 23:36:23;;;;;;;1.67;0.20;;;4.50;99.90;;;;;;21125718;28;20051;-52
2022/04/26 23:46:25;;;;;;;0.45;0.25;;;4.40;99.90;;;;;;21211493;28;20660;-59
2022/04/26 23:56:28;;;;;;;0.40;0.20;;;4.10;99.90;;;;;;21211221;28;20116;-52
